sensor_id;sensor_type;location;lat;lon;timestamp;pressure;altitude;pressure_sealevel;temperature;humidity
54900;BME280;40801;41.924;25.562;2023-04-24T00:01:15;99388.13;;;11.61;62.20
54900;BME280;40801;41.924;25.562;2023-04-24T00:03:42;99397.16;;;11.57;62.40
54900;BME280;40801;41.924;25.562;2023-04-24T00:06:07;99384.88;;;11.51;62.68
54900;BME280;40801;41.924;25.562;2023-04-24T00:08:34;99395.34;;;11.43;63.13
54900;BME280;40801;41.924;25.562;2023-04-24T00:11:00;99394.69;;;11.38;63.30
54900;BME280;40801;41.924;25.562;2023-04-24T00:13:25;99385.78;;;11.37;63.44
54900;BME280;40801;41.924;25.562;2023-04-24T00:15:51;99384.50;;;11.35;63.85
54900;BME280;40801;41.924;25.562;2023-04-24T00:18:16;99384.19;;;11.36;63.45
54900;BME280;40801;41.924;25.562;2023-04-24T00:20:42;99382.78;;;11.39;63.36
54900;BME280;40801;41.924;25.562;2023-04-24T00:23:08;99375.28;;;11.36;63.33
54900;BME280;40801;41.924;25.562;2023-04-24T00:25:34;99389.59;;;11.36;63.46
54900;BME280;40801;41.924;25.562;2023-04-24T00:28:00;99382.13;;;11.33;63.41
54900;BME280;40801;41.924;25.562;2023-04-24T00:30:25;99382.34;;;11.23;64.09
54900;BME280;40801;41.924;25.562;2023-04-24T00:32:50;99384.25;;;11.23;63.54
54900;BME280;40801;41.924;25.562;2023-04-24T00:35:16;99379.16;;;11.21;63.66
54900;BME280;40801;41.924;25.562;2023-04-24T00:37:41;99366.72;;;11.11;64.19
54900;BME280;40801;41.924;25.562;2023-04-24T00:40:07;99367.53;;;11.12;64.18
54900;BME280;40801;41.924;25.562;2023-04-24T00:42:33;99365.44;;;11.09;63.95
54900;BME280;40801;41.924;25.562;2023-04-24T00:44:58;99369.25;;;11.08;64.26
54900;BME280;40801;41.924;25.562;2023-04-24T00:47:25;99378.16;;;11.08;64.07
54900;BME280;40801;41.924;25.562;2023-04-24T00:49:50;99374.97;;;11.06;64.58
54900;BME280;40801;41.924;25.562;2023-04-24T00:52:16;99362.09;;;11.03;64.33
54900;BME280;40801;41.924;25.562;2023-04-24T00:54:43;99361.59;;;11.01;64.87
54900;BME280;40801;41.924;25.562;2023-04-24T00:57:10;99365.88;;;11.02;64.73
54900;BME280;40801;41.924;25.562;2023-04-24T00:59:36;99370.91;;;10.95;65.02
54900;BME280;40801;41.924;25.562;2023-04-24T01:02:02;99368.50;;;10.94;64.38
54900;BME280;40801;41.924;25.562;2023-04-24T01:04:28;99375.25;;;10.82;65.68
54900;BME280;40801;41.924;25.562;2023-04-24T01:06:54;99370.50;;;10.79;65.74
54900;BME280;40801;41.924;25.562;2023-04-24T01:09:22;99373.41;;;10.69;66.12
54900;BME280;40801;41.924;25.562;2023-04-24T01:11:48;99369.31;;;10.72;66.06
54900;BME280;40801;41.924;25.562;2023-04-24T01:14:14;99361.03;;;10.68;66.62
54900;BME280;40801;41.924;25.562;2023-04-24T01:16:40;99364.50;;;10.69;66.66
54900;BME280;40801;41.924;25.562;2023-04-24T01:19:06;99354.66;;;10.64;67.45
54900;BME280;40801;41.924;25.562;2023-04-24T01:21:35;99357.84;;;10.66;67.23
54900;BME280;40801;41.924;25.562;2023-04-24T01:24:02;99351.47;;;10.62;67.12
54900;BME280;40801;41.924;25.562;2023-04-24T01:26:28;99353.97;;;10.59;67.27
54900;BME280;40801;41.924;25.562;2023-04-24T01:28:53;99359.97;;;10.55;67.13
54900;BME280;40801;41.924;25.562;2023-04-24T01:31:19;99354.72;;;10.50;67.51
54900;BME280;40801;41.924;25.562;2023-04-24T01:33:45;99358.00;;;10.47;67.27
54900;BME280;40801;41.924;25.562;2023-04-24T01:36:11;99354.34;;;10.43;67.55
54900;BME280;40801;41.924;25.562;2023-04-24T01:38:37;99351.44;;;10.40;67.88
54900;BME280;40801;41.924;25.562;2023-04-24T01:41:02;99350.06;;;10.29;67.80
54900;BME280;40801;41.924;25.562;2023-04-24T01:43:28;99351.97;;;10.28;67.87
54900;BME280;40801;41.924;25.562;2023-04-24T01:45:54;99350.75;;;10.34;67.14
54900;BME280;40801;41.924;25.562;2023-04-24T01:48:19;99350.13;;;10.37;67.17
54900;BME280;40801;41.924;25.562;2023-04-24T01:50:45;99346.94;;;10.35;67.43
54900;BME280;40801;41.924;25.562;2023-04-24T01:53:11;99342.41;;;10.22;68.33
54900;BME280;40801;41.924;25.562;2023-04-24T01:55:36;99344.31;;;10.21;68.36
54900;BME280;40801;41.924;25.562;2023-04-24T01:58:02;99345.19;;;10.17;68.58
54900;BME280;40801;41.924;25.562;2023-04-24T02:00:27;99341.28;;;10.09;68.93
54900;BME280;40801;41.924;25.562;2023-04-24T02:02:53;99342.69;;;10.07;68.98
54900;BME280;40801;41.924;25.562;2023-04-24T02:05:18;99349.06;;;10.11;68.80
54900;BME280;40801;41.924;25.562;2023-04-24T02:07:44;99342.88;;;10.10;68.84
54900;BME280;40801;41.924;25.562;2023-04-24T02:10:09;99354.78;;;9.96;69.35
54900;BME280;40801;41.924;25.562;2023-04-24T02:12:35;99356.69;;;9.81;69.53
54900;BME280;40801;41.924;25.562;2023-04-24T02:15:01;99362.78;;;9.73;69.35
54900;BME280;40801;41.924;25.562;2023-04-24T02:17:26;99356.09;;;9.71;69.07
54900;BME280;40801;41.924;25.562;2023-04-24T02:19:52;99353.41;;;9.71;69.72
54900;BME280;40801;41.924;25.562;2023-04-24T02:22:17;99355.00;;;9.72;69.37
54900;BME280;40801;41.924;25.562;2023-04-24T02:24:42;99347.41;;;9.60;69.92
54900;BME280;40801;41.924;25.562;2023-04-24T02:27:08;99348.31;;;9.55;70.04
54900;BME280;40801;41.924;25.562;2023-04-24T02:29:34;99355.59;;;9.55;70.01
54900;BME280;40801;41.924;25.562;2023-04-24T02:31:59;99352.91;;;9.55;70.06
54900;BME280;40801;41.924;25.562;2023-04-24T02:34:25;99364.19;;;9.57;69.75
54900;BME280;40801;41.924;25.562;2023-04-24T02:36:50;99364.75;;;9.54;70.15
54900;BME280;40801;41.924;25.562;2023-04-24T02:39:16;99367.94;;;9.42;70.11
54900;BME280;40801;41.924;25.562;2023-04-24T02:41:42;99374.13;;;9.43;70.18
54900;BME280;40801;41.924;25.562;2023-04-24T02:44:08;99375.50;;;9.40;69.94
54900;BME280;40801;41.924;25.562;2023-04-24T02:46:34;99370.22;;;9.35;70.39
54900;BME280;40801;41.924;25.562;2023-04-24T02:48:59;99379.47;;;9.29;70.26
54900;BME280;40801;41.924;25.562;2023-04-24T02:51:24;99371.78;;;9.22;70.55
54900;BME280;40801;41.924;25.562;2023-04-24T02:53:50;99379.34;;;9.20;70.73
54900;BME280;40801;41.924;25.562;2023-04-24T02:56:15;99371.78;;;9.22;70.23
54900;BME280;40801;41.924;25.562;2023-04-24T02:58:40;99365.53;;;9.27;70.28
54900;BME280;40801;41.924;25.562;2023-04-24T03:01:07;99362.53;;;9.28;70.18
54900;BME280;40801;41.924;25.562;2023-04-24T03:03:33;99363.84;;;9.31;70.62
54900;BME280;40801;41.924;25.562;2023-04-24T03:05:58;99362.25;;;9.30;70.82
54900;BME280;40801;41.924;25.562;2023-04-24T03:08:24;99363.69;;;9.22;70.87
54900;BME280;40801;41.924;25.562;2023-04-24T03:10:49;99367.88;;;9.15;71.43
54900;BME280;40801;41.924;25.562;2023-04-24T03:13:15;99367.09;;;9.14;71.25
54900;BME280;40801;41.924;25.562;2023-04-24T03:15:41;99373.16;;;9.06;71.40
54900;BME280;40801;41.924;25.562;2023-04-24T03:18:06;99363.47;;;9.05;70.86
54900;BME280;40801;41.924;25.562;2023-04-24T03:20:32;99363.56;;;9.00;71.11
54900;BME280;40801;41.924;25.562;2023-04-24T03:22:57;99364.31;;;8.87;71.61
54900;BME280;40801;41.924;25.562;2023-04-24T03:25:22;99366.38;;;8.76;72.13
54900;BME280;40801;41.924;25.562;2023-04-24T03:27:48;99360.50;;;8.74;71.72
54900;BME280;40801;41.924;25.562;2023-04-24T03:30:13;99362.66;;;8.72;72.23
54900;BME280;40801;41.924;25.562;2023-04-24T03:32:38;99361.66;;;8.68;71.89
54900;BME280;40801;41.924;25.562;2023-04-24T03:35:06;99360.91;;;8.62;72.05
54900;BME280;40801;41.924;25.562;2023-04-24T03:37:32;99372.84;;;8.56;72.26
54900;BME280;40801;41.924;25.562;2023-04-24T03:39:58;99372.13;;;8.51;72.03
54900;BME280;40801;41.924;25.562;2023-04-24T03:42:23;99373.13;;;8.55;71.90
54900;BME280;40801;41.924;25.562;2023-04-24T03:44:49;99372.34;;;8.54;72.73
54900;BME280;40801;41.924;25.562;2023-04-24T03:47:14;99372.91;;;8.51;72.56
54900;BME280;40801;41.924;25.562;2023-04-24T03:49:40;99369.66;;;8.54;73.06
54900;BME280;40801;41.924;25.562;2023-04-24T03:52:05;99370.28;;;8.65;72.29
54900;BME280;40801;41.924;25.562;2023-04-24T03:54:31;99364.63;;;8.66;72.32
54900;BME280;40801;41.924;25.562;2023-04-24T03:56:56;99375.81;;;8.74;72.18
54900;BME280;40801;41.924;25.562;2023-04-24T03:59:22;99371.94;;;8.80;72.46
54900;BME280;40801;41.924;25.562;2023-04-24T04:01:47;99369.56;;;8.78;72.56
54900;BME280;40801;41.924;25.562;2023-04-24T04:04:12;99372.38;;;8.87;72.05
54900;BME280;40801;41.924;25.562;2023-04-24T04:06:38;99371.50;;;8.91;72.50
54900;BME280;40801;41.924;25.562;2023-04-24T04:09:03;99380.50;;;9.00;72.42
54900;BME280;40801;41.924;25.562;2023-04-24T04:11:29;99375.53;;;9.08;71.94
54900;BME280;40801;41.924;25.562;2023-04-24T04:13:55;99382.50;;;9.09;72.39
54900;BME280;40801;41.924;25.562;2023-04-24T04:16:22;99386.81;;;9.10;72.63
54900;BME280;40801;41.924;25.562;2023-04-24T04:18:48;99390.09;;;9.07;72.79
54900;BME280;40801;41.924;25.562;2023-04-24T04:21:13;99404.94;;;9.18;72.73
54900;BME280;40801;41.924;25.562;2023-04-24T04:23:39;99398.53;;;9.32;71.60
54900;BME280;40801;41.924;25.562;2023-04-24T04:26:05;99409.41;;;9.41;71.66
54900;BME280;40801;41.924;25.562;2023-04-24T04:28:31;99397.44;;;9.34;72.71
54900;BME280;40801;41.924;25.562;2023-04-24T04:30:57;99397.44;;;9.47;71.93
54900;BME280;40801;41.924;25.562;2023-04-24T04:33:24;99403.47;;;9.58;71.42
54900;BME280;40801;41.924;25.562;2023-04-24T04:35:50;99411.53;;;9.72;71.47
54900;BME280;40801;41.924;25.562;2023-04-24T04:38:19;99410.94;;;9.75;71.34
54900;BME280;40801;41.924;25.562;2023-04-24T04:40:45;99405.16;;;9.81;71.81
54900;BME280;40801;41.924;25.562;2023-04-24T04:43:11;99401.88;;;9.98;70.86
54900;BME280;40801;41.924;25.562;2023-04-24T04:45:38;99393.50;;;10.13;70.44
54900;BME280;40801;41.924;25.562;2023-04-24T04:48:05;99389.09;;;10.17;70.42
54900;BME280;40801;41.924;25.562;2023-04-24T04:50:32;99405.88;;;10.42;69.52
54900;BME280;40801;41.924;25.562;2023-04-24T04:52:57;99410.22;;;10.51;69.12
54900;BME280;40801;41.924;25.562;2023-04-24T04:55:23;99404.53;;;10.53;69.13
54900;BME280;40801;41.924;25.562;2023-04-24T04:57:48;99400.31;;;10.61;69.04
54900;BME280;40801;41.924;25.562;2023-04-24T05:00:14;99402.56;;;10.81;68.35
54900;BME280;40801;41.924;25.562;2023-04-24T05:02:40;99397.41;;;10.93;67.79
54900;BME280;40801;41.924;25.562;2023-04-24T05:05:07;99403.72;;;11.11;67.52
54900;BME280;40801;41.924;25.562;2023-04-24T05:07:33;99399.03;;;11.25;67.09
54900;BME280;40801;41.924;25.562;2023-04-24T05:09:58;99400.88;;;11.38;66.50
54900;BME280;40801;41.924;25.562;2023-04-24T05:12:23;99400.28;;;11.50;66.10
54900;BME280;40801;41.924;25.562;2023-04-24T05:14:49;99394.25;;;11.53;66.78
54900;BME280;40801;41.924;25.562;2023-04-24T05:17:15;99402.03;;;11.46;67.36
54900;BME280;40801;41.924;25.562;2023-04-24T05:19:40;99403.78;;;11.51;67.24
54900;BME280;40801;41.924;25.562;2023-04-24T05:22:06;99406.06;;;11.57;66.86
54900;BME280;40801;41.924;25.562;2023-04-24T05:24:35;99402.31;;;11.75;66.31
54900;BME280;40801;41.924;25.562;2023-04-24T05:27:02;99415.28;;;11.87;66.22
54900;BME280;40801;41.924;25.562;2023-04-24T05:29:28;99400.06;;;12.00;65.45
54900;BME280;40801;41.924;25.562;2023-04-24T05:31:56;99405.06;;;12.24;64.77
54900;BME280;40801;41.924;25.562;2023-04-24T05:34:21;99408.56;;;12.33;64.41
54900;BME280;40801;41.924;25.562;2023-04-24T05:36:47;99410.00;;;12.39;64.24
54900;BME280;40801;41.924;25.562;2023-04-24T05:39:13;99406.06;;;12.54;64.10
54900;BME280;40801;41.924;25.562;2023-04-24T05:41:39;99406.06;;;12.54;64.17
54900;BME280;40801;41.924;25.562;2023-04-24T05:44:04;99404.66;;;12.82;63.38
54900;BME280;40801;41.924;25.562;2023-04-24T05:46:30;99416.88;;;12.97;63.13
54900;BME280;40801;41.924;25.562;2023-04-24T05:48:56;99416.72;;;13.11;62.86
54900;BME280;40801;41.924;25.562;2023-04-24T05:51:21;99415.63;;;13.12;63.53
54900;BME280;40801;41.924;25.562;2023-04-24T05:53:46;99417.19;;;13.39;63.67
54900;BME280;40801;41.924;25.562;2023-04-24T05:56:12;99416.84;;;13.49;63.78
54900;BME280;40801;41.924;25.562;2023-04-24T05:58:37;99415.78;;;13.79;62.49
54900;BME280;40801;41.924;25.562;2023-04-24T06:01:03;99410.13;;;14.02;61.82
54900;BME280;40801;41.924;25.562;2023-04-24T06:03:28;99417.00;;;14.29;61.53
54900;BME280;40801;41.924;25.562;2023-04-24T06:05:54;99410.22;;;14.43;61.19
54900;BME280;40801;41.924;25.562;2023-04-24T06:08:19;99407.78;;;14.71;59.84
54900;BME280;40801;41.924;25.562;2023-04-24T06:10:45;99395.91;;;14.97;58.94
54900;BME280;40801;41.924;25.562;2023-04-24T06:13:10;99397.16;;;15.20;57.65
54900;BME280;40801;41.924;25.562;2023-04-24T06:15:36;99395.28;;;15.33;57.36
54900;BME280;40801;41.924;25.562;2023-04-24T06:18:02;99385.19;;;15.33;57.22
54900;BME280;40801;41.924;25.562;2023-04-24T06:20:28;99386.66;;;15.76;56.37
54900;BME280;40801;41.924;25.562;2023-04-24T06:22:53;99387.78;;;16.11;55.54
54900;BME280;40801;41.924;25.562;2023-04-24T06:25:19;99381.03;;;16.46;55.13
54900;BME280;40801;41.924;25.562;2023-04-24T06:27:44;99381.25;;;16.77;54.26
54900;BME280;40801;41.924;25.562;2023-04-24T06:30:10;99377.47;;;17.10;53.31
54900;BME280;40801;41.924;25.562;2023-04-24T06:32:36;99382.66;;;17.15;52.39
54900;BME280;40801;41.924;25.562;2023-04-24T06:35:01;99376.81;;;17.60;51.94
54900;BME280;40801;41.924;25.562;2023-04-24T06:37:27;99377.94;;;17.71;51.36
54900;BME280;40801;41.924;25.562;2023-04-24T06:39:52;99383.09;;;18.08;50.80
54900;BME280;40801;41.924;25.562;2023-04-24T06:42:18;99386.97;;;18.42;48.88
54900;BME280;40801;41.924;25.562;2023-04-24T06:44:45;99378.69;;;18.73;48.48
54900;BME280;40801;41.924;25.562;2023-04-24T06:47:11;99371.69;;;18.56;48.40
54900;BME280;40801;41.924;25.562;2023-04-24T06:49:40;99371.06;;;19.02;47.94
54900;BME280;40801;41.924;25.562;2023-04-24T06:52:06;99360.78;;;19.57;47.16
54900;BME280;40801;41.924;25.562;2023-04-24T06:54:32;99361.97;;;19.82;46.52
54900;BME280;40801;41.924;25.562;2023-04-24T06:56:58;99361.31;;;20.15;46.38
54900;BME280;40801;41.924;25.562;2023-04-24T06:59:24;99353.00;;;20.34;45.66
54900;BME280;40801;41.924;25.562;2023-04-24T07:01:50;99367.09;;;20.10;45.58
54900;BME280;40801;41.924;25.562;2023-04-24T07:04:19;99366.38;;;19.64;45.99
54900;BME280;40801;41.924;25.562;2023-04-24T07:06:48;99365.00;;;20.00;45.07
54900;BME280;40801;41.924;25.562;2023-04-24T07:09:14;99354.03;;;20.53;45.79
54900;BME280;40801;41.924;25.562;2023-04-24T07:11:41;99368.66;;;20.94;43.95
54900;BME280;40801;41.924;25.562;2023-04-24T07:14:07;99362.09;;;21.06;43.99
54900;BME280;40801;41.924;25.562;2023-04-24T07:16:33;99357.72;;;21.34;42.82
54900;BME280;40801;41.924;25.562;2023-04-24T07:18:58;99352.84;;;21.54;41.26
54900;BME280;40801;41.924;25.562;2023-04-24T07:21:24;99361.44;;;21.16;42.68
54900;BME280;40801;41.924;25.562;2023-04-24T07:23:50;99362.94;;;20.76;43.09
54900;BME280;40801;41.924;25.562;2023-04-24T07:26:16;99359.63;;;20.60;42.93
54900;BME280;40801;41.924;25.562;2023-04-24T07:28:41;99359.50;;;20.83;43.55
54900;BME280;40801;41.924;25.562;2023-04-24T07:31:08;99350.97;;;21.25;42.93
54900;BME280;40801;41.924;25.562;2023-04-24T07:33:33;99345.94;;;21.71;42.06
54900;BME280;40801;41.924;25.562;2023-04-24T07:35:59;99350.78;;;21.95;40.50
54900;BME280;40801;41.924;25.562;2023-04-24T07:38:24;99343.06;;;22.05;39.96
54900;BME280;40801;41.924;25.562;2023-04-24T07:40:51;99357.63;;;21.64;39.81
54900;BME280;40801;41.924;25.562;2023-04-24T07:43:16;99353.03;;;21.35;40.65
54900;BME280;40801;41.924;25.562;2023-04-24T07:45:42;99359.38;;;21.06;40.91
54900;BME280;40801;41.924;25.562;2023-04-24T07:48:07;99360.13;;;21.02;40.84
54900;BME280;40801;41.924;25.562;2023-04-24T07:50:34;99363.56;;;20.96;39.93
54900;BME280;40801;41.924;25.562;2023-04-24T07:53:01;99360.63;;;20.78;40.53
54900;BME280;40801;41.924;25.562;2023-04-24T07:55:26;99362.94;;;21.43;40.49
54900;BME280;40801;41.924;25.562;2023-04-24T07:57:51;99355.66;;;22.13;39.49
54900;BME280;40801;41.924;25.562;2023-04-24T08:00:17;99358.03;;;22.87;39.10
54900;BME280;40801;41.924;25.562;2023-04-24T08:02:42;99357.28;;;23.04;38.32
54900;BME280;40801;41.924;25.562;2023-04-24T08:05:08;99348.63;;;22.99;38.01
54900;BME280;40801;41.924;25.562;2023-04-24T08:07:33;99349.56;;;23.63;37.24
54900;BME280;40801;41.924;25.562;2023-04-24T08:10:00;99346.78;;;24.31;35.36
54900;BME280;40801;41.924;25.562;2023-04-24T08:12:27;99344.78;;;24.35;35.90
54900;BME280;40801;41.924;25.562;2023-04-24T08:14:52;99339.09;;;24.81;35.27
54900;BME280;40801;41.924;25.562;2023-04-24T08:17:18;99343.19;;;24.27;35.52
54900;BME280;40801;41.924;25.562;2023-04-24T08:19:43;99337.72;;;24.13;35.06
54900;BME280;40801;41.924;25.562;2023-04-24T08:22:16;99346.81;;;23.85;35.16
54900;BME280;40801;41.924;25.562;2023-04-24T08:24:41;99344.00;;;23.35;35.45
54900;BME280;40801;41.924;25.562;2023-04-24T08:27:08;99336.97;;;23.59;35.00
54900;BME280;40801;41.924;25.562;2023-04-24T08:29:33;99336.19;;;23.62;35.00
54900;BME280;40801;41.924;25.562;2023-04-24T08:31:59;99334.94;;;23.16;35.33
54900;BME280;40801;41.924;25.562;2023-04-24T08:34:24;99333.22;;;22.80;36.20
54900;BME280;40801;41.924;25.562;2023-04-24T08:36:50;99335.56;;;22.74;36.11
54900;BME280;40801;41.924;25.562;2023-04-24T08:39:17;99326.38;;;22.38;36.60
54900;BME280;40801;41.924;25.562;2023-04-24T08:41:43;99325.69;;;22.59;37.45
54900;BME280;40801;41.924;25.562;2023-04-24T08:44:09;99325.91;;;23.34;37.34
54900;BME280;40801;41.924;25.562;2023-04-24T08:46:35;99314.50;;;24.06;36.20
54900;BME280;40801;41.924;25.562;2023-04-24T08:49:01;99310.38;;;24.71;35.58
54900;BME280;40801;41.924;25.562;2023-04-24T08:51:27;99316.03;;;25.23;33.75
54900;BME280;40801;41.924;25.562;2023-04-24T08:53:55;99305.16;;;25.50;33.82
54900;BME280;40801;41.924;25.562;2023-04-24T08:56:22;99301.88;;;25.70;33.42
54900;BME280;40801;41.924;25.562;2023-04-24T08:58:50;99296.25;;;26.18;32.87
54900;BME280;40801;41.924;25.562;2023-04-24T09:01:17;99296.69;;;26.81;31.81
54900;BME280;40801;41.924;25.562;2023-04-24T09:03:44;99291.53;;;26.83;31.79
54900;BME280;40801;41.924;25.562;2023-04-24T09:06:11;99290.47;;;27.31;31.43
54900;BME280;40801;41.924;25.562;2023-04-24T09:08:36;99295.25;;;27.54;30.53
54900;BME280;40801;41.924;25.562;2023-04-24T09:11:03;99289.41;;;27.71;30.41
54900;BME280;40801;41.924;25.562;2023-04-24T09:13:30;99284.63;;;27.95;30.09
54900;BME280;40801;41.924;25.562;2023-04-24T09:15:55;99280.41;;;28.50;29.27
54900;BME280;40801;41.924;25.562;2023-04-24T09:18:22;99282.91;;;28.64;28.80
54900;BME280;40801;41.924;25.562;2023-04-24T09:21:07;99277.19;;;28.52;28.78
54900;BME280;40801;41.924;25.562;2023-04-24T09:23:33;99278.81;;;28.69;28.21
54900;BME280;40801;41.924;25.562;2023-04-24T09:25:59;99271.03;;;29.00;27.45
54900;BME280;40801;41.924;25.562;2023-04-24T09:28:30;99272.56;;;28.65;27.95
54900;BME280;40801;41.924;25.562;2023-04-24T09:33:35;99266.75;;;29.12;28.81
54900;BME280;40801;41.924;25.562;2023-04-24T09:36:01;99263.56;;;29.13;28.23
54900;BME280;40801;41.924;25.562;2023-04-24T09:38:36;99261.56;;;29.30;27.40
54900;BME280;40801;41.924;25.562;2023-04-24T09:41:03;99262.88;;;29.58;27.44
54900;BME280;40801;41.924;25.562;2023-04-24T09:43:30;99261.66;;;30.04;27.21
54900;BME280;40801;41.924;25.562;2023-04-24T09:45:57;99264.41;;;29.75;27.69
54900;BME280;40801;41.924;25.562;2023-04-24T09:48:40;99256.28;;;29.97;25.47
54900;BME280;40801;41.924;25.562;2023-04-24T09:51:06;99251.94;;;30.12;26.97
54900;BME280;40801;41.924;25.562;2023-04-24T09:53:32;99245.25;;;29.94;27.24
54900;BME280;40801;41.924;25.562;2023-04-24T09:56:11;99249.56;;;30.40;26.49
54900;BME280;40801;41.924;25.562;2023-04-24T09:58:38;99244.31;;;30.42;26.42
54900;BME280;40801;41.924;25.562;2023-04-24T10:01:04;99240.94;;;30.34;26.33
54900;BME280;40801;41.924;25.562;2023-04-24T10:03:30;99231.81;;;30.21;27.18
54900;BME280;40801;41.924;25.562;2023-04-24T10:06:01;99236.88;;;30.51;26.88
54900;BME280;40801;41.924;25.562;2023-04-24T10:08:33;99224.47;;;30.69;25.44
54900;BME280;40801;41.924;25.562;2023-04-24T10:10:59;99220.53;;;30.79;26.50
54900;BME280;40801;41.924;25.562;2023-04-24T10:13:25;99222.97;;;31.15;26.39
54900;BME280;40801;41.924;25.562;2023-04-24T10:15:51;99221.69;;;31.54;26.26
54900;BME280;40801;41.924;25.562;2023-04-24T10:18:17;99211.03;;;31.74;26.34
54900;BME280;40801;41.924;25.562;2023-04-24T10:20:44;99199.19;;;31.83;25.20
54900;BME280;40801;41.924;25.562;2023-04-24T10:23:10;99205.53;;;31.84;25.75
54900;BME280;40801;41.924;25.562;2023-04-24T10:25:36;99198.78;;;31.94;25.84
54900;BME280;40801;41.924;25.562;2023-04-24T10:28:02;99200.72;;;32.06;25.13
54900;BME280;40801;41.924;25.562;2023-04-24T10:30:30;99189.50;;;31.75;25.45
54900;BME280;40801;41.924;25.562;2023-04-24T10:33:00;99188.19;;;31.67;25.26
54900;BME280;40801;41.924;25.562;2023-04-24T10:35:25;99188.16;;;31.45;26.22
54900;BME280;40801;41.924;25.562;2023-04-24T10:38:02;99179.97;;;31.16;26.31
54900;BME280;40801;41.924;25.562;2023-04-24T10:40:34;99191.25;;;31.47;25.60
54900;BME280;40801;41.924;25.562;2023-04-24T10:43:07;99187.03;;;31.42;26.05
54900;BME280;40801;41.924;25.562;2023-04-24T10:45:35;99180.56;;;31.80;25.48
54900;BME280;40801;41.924;25.562;2023-04-24T10:48:05;99170.75;;;31.97;25.09
54900;BME280;40801;41.924;25.562;2023-04-24T10:53:13;99178.81;;;32.79;23.29
54900;BME280;40801;41.924;25.562;2023-04-24T10:55:46;99178.44;;;32.68;24.04
54900;BME280;40801;41.924;25.562;2023-04-24T10:58:12;99171.91;;;32.31;24.24
54900;BME280;40801;41.924;25.562;2023-04-24T11:00:39;99168.75;;;31.98;24.94
54900;BME280;40801;41.924;25.562;2023-04-24T11:03:06;99161.34;;;32.04;24.83
54900;BME280;40801;41.924;25.562;2023-04-24T11:05:53;99168.38;;;32.71;23.87
54900;BME280;40801;41.924;25.562;2023-04-24T11:08:39;99158.50;;;32.48;24.25
54900;BME280;40801;41.924;25.562;2023-04-24T11:11:17;99166.69;;;32.73;23.81
54900;BME280;40801;41.924;25.562;2023-04-24T11:29:42;99145.09;;;33.41;24.44
54900;BME280;40801;41.924;25.562;2023-04-24T11:32:19;99140.28;;;33.42;24.65
54900;BME280;40801;41.924;25.562;2023-04-24T11:34:49;99132.84;;;33.57;24.61
54900;BME280;40801;41.924;25.562;2023-04-24T11:37:15;99135.91;;;33.96;24.03
54900;BME280;40801;41.924;25.562;2023-04-24T11:39:41;99131.97;;;34.11;24.02
54900;BME280;40801;41.924;25.562;2023-04-24T11:42:07;99127.72;;;34.25;23.92
54900;BME280;40801;41.924;25.562;2023-04-24T11:44:34;99123.06;;;34.64;23.44
54900;BME280;40801;41.924;25.562;2023-04-24T11:47:00;99114.66;;;33.62;23.72
54900;BME280;40801;41.924;25.562;2023-04-24T11:49:25;99117.59;;;33.31;24.33
54900;BME280;40801;41.924;25.562;2023-04-24T11:51:55;99108.56;;;32.19;25.39
54900;BME280;40801;41.924;25.562;2023-04-24T11:54:20;99101.88;;;33.15;24.80
54900;BME280;40801;41.924;25.562;2023-04-24T11:56:47;99106.09;;;33.29;24.94
54900;BME280;40801;41.924;25.562;2023-04-24T11:59:12;99092.78;;;32.65;25.89
54900;BME280;40801;41.924;25.562;2023-04-24T12:01:47;99104.34;;;31.39;26.40
54900;BME280;40801;41.924;25.562;2023-04-24T12:04:16;99097.22;;;30.02;28.68
54900;BME280;40801;41.924;25.562;2023-04-24T12:07:02;99098.47;;;29.59;29.21
54900;BME280;40801;41.924;25.562;2023-04-24T12:09:28;99093.50;;;30.21;28.87
54900;BME280;40801;41.924;25.562;2023-04-24T12:11:56;99096.75;;;31.05;27.53
54900;BME280;40801;41.924;25.562;2023-04-24T12:14:22;99086.97;;;31.35;27.08
54900;BME280;40801;41.924;25.562;2023-04-24T12:16:48;99086.97;;;31.35;27.18
54900;BME280;40801;41.924;25.562;2023-04-24T12:19:22;99083.38;;;30.40;28.30
54900;BME280;40801;41.924;25.562;2023-04-24T12:22:06;99077.69;;;29.51;28.15
54900;BME280;40801;41.924;25.562;2023-04-24T12:24:31;99091.22;;;29.04;28.23
54900;BME280;40801;41.924;25.562;2023-04-24T12:26:57;99080.06;;;28.91;29.07
54900;BME280;40801;41.924;25.562;2023-04-24T12:29:24;99071.50;;;29.44;29.16
54900;BME280;40801;41.924;25.562;2023-04-24T12:31:50;99067.34;;;30.44;27.94
54900;BME280;40801;41.924;25.562;2023-04-24T12:34:23;99063.19;;;31.09;27.40
54900;BME280;40801;41.924;25.562;2023-04-24T12:36:50;99049.09;;;31.91;26.03
54900;BME280;40801;41.924;25.562;2023-04-24T12:39:16;99044.91;;;31.95;25.93
54900;BME280;40801;41.924;25.562;2023-04-24T12:41:50;99036.44;;;32.08;25.25
54900;BME280;40801;41.924;25.562;2023-04-24T12:44:19;99035.00;;;32.34;26.14
54900;BME280;40801;41.924;25.562;2023-04-24T12:46:44;99026.84;;;32.58;25.27
54900;BME280;40801;41.924;25.562;2023-04-24T12:49:10;99034.56;;;32.05;26.29
54900;BME280;40801;41.924;25.562;2023-04-24T12:51:35;99021.50;;;32.33;25.52
54900;BME280;40801;41.924;25.562;2023-04-24T12:54:01;99022.66;;;31.73;26.17
54900;BME280;40801;41.924;25.562;2023-04-24T12:56:27;99014.75;;;30.72;26.63
54900;BME280;40801;41.924;25.562;2023-04-24T12:58:52;99019.25;;;29.93;27.97
54900;BME280;40801;41.924;25.562;2023-04-24T13:01:17;99012.75;;;29.16;28.74
54900;BME280;40801;41.924;25.562;2023-04-24T13:03:43;99019.44;;;28.25;30.18
54900;BME280;40801;41.924;25.562;2023-04-24T13:06:08;99002.97;;;28.50;30.64
54900;BME280;40801;41.924;25.562;2023-04-24T13:08:34;99006.22;;;28.94;31.12
54900;BME280;40801;41.924;25.562;2023-04-24T13:10:59;98996.56;;;29.95;29.65